createdAt,value
2019-04-05T00:01:09.380Z,21.16
2019-04-05T00:03:11.000Z,21.15
2019-04-05T00:05:12.612Z,21.16
2019-04-05T00:07:14.228Z,21.17
2019-04-05T00:09:15.883Z,21.15
2019-04-05T00:11:17.467Z,21.15
2019-04-05T00:13:19.120Z,21.15
2019-04-05T00:15:20.718Z,21.13
2019-04-05T00:17:22.308Z,21.16
2019-04-05T00:19:23.946Z,21.20
2019-04-05T00:21:25.563Z,21.21
2019-04-05T00:23:27.161Z,21.23
2019-04-05T00:25:28.756Z,21.26
2019-04-05T00:27:30.361Z,21.22
2019-04-05T00:29:32.015Z,21.19
2019-04-05T00:31:33.638Z,21.18
2019-04-05T00:33:35.235Z,21.15
2019-04-05T00:35:36.861Z,21.13
2019-04-05T00:37:38.452Z,21.11
2019-04-05T00:39:40.100Z,21.10
2019-04-05T00:41:41.717Z,21.09
2019-04-05T00:43:43.321Z,21.08
2019-04-05T00:45:44.915Z,21.08
2019-04-05T00:47:46.495Z,21.10
2019-04-05T00:49:48.123Z,21.13
2019-04-05T00:51:49.733Z,21.17
2019-04-05T00:53:51.332Z,21.22
2019-04-05T00:55:52.948Z,21.26
2019-04-05T00:57:54.544Z,21.28
2019-04-05T00:59:56.132Z,21.29
2019-04-05T01:01:57.757Z,21.30
2019-04-05T01:03:59.384Z,21.28
2019-04-05T01:06:01.012Z,21.27
2019-04-05T01:08:02.633Z,21.27
2019-04-05T01:10:04.285Z,21.25
2019-04-05T01:12:05.882Z,21.28
2019-04-05T01:14:07.501Z,21.27
2019-04-05T01:16:09.116Z,21.25
2019-04-05T01:18:10.745Z,21.22
2019-04-05T01:20:12.351Z,21.20
2019-04-05T01:22:13.967Z,21.18
2019-04-05T01:24:15.561Z,21.17
2019-04-05T01:26:17.213Z,21.17
2019-04-05T01:28:18.801Z,21.20
2019-04-05T01:30:20.426Z,21.22
2019-04-05T01:32:22.013Z,21.24
2019-04-05T01:34:23.665Z,21.23
2019-04-05T01:36:25.257Z,21.22
2019-04-05T01:38:26.848Z,21.21
2019-04-05T01:40:28.446Z,21.21
2019-04-05T01:42:30.039Z,21.20
2019-04-05T01:44:31.664Z,21.19
2019-04-05T01:46:33.280Z,21.17
2019-04-05T01:48:34.875Z,21.23
2019-04-05T01:50:36.464Z,21.26
2019-04-05T01:52:38.079Z,21.26
2019-04-05T01:54:39.748Z,21.27
2019-04-05T01:56:41.369Z,21.25
2019-04-05T01:58:42.984Z,21.24
2019-04-05T02:00:44.605Z,21.26
2019-04-05T02:02:46.204Z,21.32
2019-04-05T02:04:47.817Z,21.40
2019-04-05T02:06:49.442Z,21.48
2019-04-05T02:08:51.046Z,21.57
2019-04-05T02:10:52.681Z,21.62
2019-04-05T02:12:54.277Z,21.65
2019-04-05T02:14:55.904Z,21.70
2019-04-05T02:16:57.501Z,21.77
2019-04-05T02:18:59.151Z,21.84
2019-04-05T02:21:00.753Z,21.81
2019-04-05T02:23:02.345Z,21.88
2019-04-05T02:25:03.994Z,21.93
2019-04-05T02:27:05.624Z,21.95
2019-04-05T02:29:07.264Z,21.95
2019-04-05T02:31:08.925Z,21.96
2019-04-05T02:33:10.559Z,21.97
2019-04-05T02:35:12.186Z,21.99
2019-04-05T02:37:13.808Z,21.98
2019-04-05T02:39:15.397Z,21.98
2019-04-05T02:41:17.025Z,21.98
2019-04-05T02:43:18.639Z,22.01
2019-04-05T02:45:20.250Z,22.00
2019-04-05T02:47:21.919Z,22.02
2019-04-05T02:49:23.562Z,22.04
2019-04-05T02:51:25.183Z,22.04
2019-04-05T02:53:26.801Z,22.07
2019-04-05T02:55:28.398Z,22.04
2019-04-05T02:57:30.054Z,22.01
2019-04-05T02:59:31.662Z,22.00
2019-04-05T03:01:33.287Z,21.99
2019-04-05T03:03:34.882Z,21.97
2019-04-05T03:05:36.511Z,22.00
2019-04-05T03:07:38.174Z,22.06
2019-04-05T03:09:39.778Z,22.09
2019-04-05T03:11:41.422Z,22.10
2019-04-05T03:13:43.001Z,22.09
2019-04-05T03:15:44.603Z,22.11
2019-04-05T03:17:46.242Z,22.10
2019-04-05T03:19:47.835Z,22.07
2019-04-05T03:21:49.433Z,22.07
2019-04-05T03:23:51.020Z,22.03
2019-04-05T03:25:52.608Z,22.02
2019-04-05T03:27:54.198Z,22.02
2019-04-05T03:29:55.814Z,22.00
2019-04-05T03:31:57.432Z,22.00
2019-04-05T03:33:59.074Z,22.01
2019-04-05T03:36:00.703Z,22.01
2019-04-05T03:38:02.307Z,22.00
2019-04-05T03:40:03.927Z,22.02
2019-04-05T03:42:05.521Z,22.00
2019-04-05T03:44:07.116Z,22.01
2019-04-05T03:46:08.761Z,22.03
2019-04-05T03:48:10.358Z,22.03
2019-04-05T03:50:12.046Z,21.99
2019-04-05T03:52:13.654Z,21.95
2019-04-05T03:54:15.257Z,21.94
2019-04-05T03:56:16.895Z,21.97
2019-04-05T03:58:18.490Z,21.95
2019-04-05T04:00:20.109Z,22.00
2019-04-05T04:02:23.495Z,21.99
2019-04-05T04:04:23.354Z,21.98
2019-04-05T04:06:24.968Z,22.02
2019-04-05T04:08:26.580Z,22.05
2019-04-05T04:10:28.234Z,22.03
2019-04-05T04:12:29.837Z,21.99
2019-04-05T04:14:31.467Z,21.96
2019-04-05T04:16:33.060Z,21.95
2019-04-05T04:18:34.659Z,21.90
2019-04-05T04:20:36.308Z,21.84
2019-04-05T04:22:37.925Z,21.79
2019-04-05T04:24:39.529Z,21.66
2019-04-05T04:26:41.121Z,21.75
2019-04-05T04:28:42.714Z,21.77
2019-04-05T04:30:44.370Z,21.77
2019-04-05T04:32:45.968Z,21.77
2019-04-05T04:34:47.575Z,21.79
2019-04-05T04:36:49.158Z,21.80
2019-04-05T04:38:50.753Z,21.83
2019-04-05T04:40:52.404Z,21.90
2019-04-05T04:42:54.049Z,21.94
2019-04-05T04:44:55.631Z,21.96
2019-04-05T04:46:57.254Z,22.00
2019-04-05T04:48:58.957Z,22.01
2019-04-05T04:51:00.558Z,22.00
2019-04-05T04:53:02.194Z,22.01
2019-04-05T04:55:03.812Z,22.00
2019-04-05T04:57:05.433Z,21.98
2019-04-05T04:59:07.042Z,21.96
2019-04-05T05:01:08.666Z,22.03
2019-04-05T05:03:10.329Z,22.03
2019-04-05T05:05:11.953Z,21.97
2019-04-05T05:07:13.604Z,22.12
2019-04-05T05:09:15.202Z,22.04
2019-04-05T05:11:16.841Z,21.96
2019-04-05T05:13:18.469Z,21.90
2019-04-05T05:15:20.085Z,21.86
2019-04-05T05:17:21.682Z,21.87
2019-04-05T05:19:23.290Z,21.81
2019-04-05T05:21:24.902Z,21.79
2019-04-05T05:23:26.491Z,21.76
2019-04-05T05:25:28.093Z,21.75
2019-04-05T05:27:29.713Z,21.75
2019-04-05T05:29:31.359Z,21.73
2019-04-05T05:31:32.972Z,21.74
2019-04-05T05:33:34.578Z,21.74
2019-04-05T05:35:36.187Z,21.73
2019-04-05T05:37:37.797Z,21.73
2019-04-05T05:39:39.409Z,21.71
2019-04-05T05:41:41.026Z,21.69
2019-04-05T05:43:42.618Z,21.68
2019-04-05T05:45:44.202Z,21.68
2019-04-05T05:47:51.624Z,21.69
2019-04-05T05:49:47.550Z,21.69
2019-04-05T05:51:49.156Z,21.69
2019-04-05T05:53:50.757Z,21.70
2019-04-05T05:55:52.411Z,21.70
2019-04-05T05:57:54.847Z,21.72
2019-04-05T05:59:55.747Z,21.74
2019-04-05T06:01:57.335Z,21.58
2019-04-05T06:03:58.947Z,21.72
2019-04-05T06:06:04.638Z,21.69
2019-04-05T06:08:02.274Z,21.67
2019-04-05T06:10:03.930Z,21.68
2019-04-05T06:12:05.540Z,21.67
2019-04-05T06:14:07.160Z,21.54
2019-04-05T06:16:08.792Z,21.67
2019-04-05T06:18:12.684Z,21.69
2019-04-05T06:20:12.121Z,21.69
2019-04-05T06:22:13.720Z,21.70
2019-04-05T06:24:15.298Z,21.69
2019-04-05T06:26:16.948Z,21.68
2019-04-05T06:28:18.544Z,21.68
2019-04-05T06:30:20.196Z,21.68
2019-04-05T06:32:21.816Z,21.68
2019-04-05T06:34:23.437Z,21.66
2019-04-05T06:36:25.049Z,21.65
2019-04-05T06:38:26.684Z,21.65
2019-04-05T06:40:40.266Z,21.64
2019-04-05T06:42:29.976Z,21.60
2019-04-05T06:44:31.567Z,21.57
2019-04-05T06:46:33.189Z,21.53
2019-04-05T06:48:34.809Z,21.49
2019-04-05T06:50:36.468Z,21.36
2019-04-05T06:52:38.088Z,21.43
2019-04-05T06:54:39.695Z,21.41
2019-04-05T06:56:41.290Z,21.41
2019-04-05T06:58:46.126Z,21.42
2019-04-05T07:00:56.447Z,21.45
2019-04-05T07:02:46.209Z,21.47
2019-04-05T07:04:47.812Z,21.48
2019-04-05T07:06:49.437Z,21.54
2019-04-05T07:08:54.058Z,21.58
2019-04-05T07:10:52.739Z,21.61
2019-04-05T07:12:54.442Z,21.63
2019-04-05T07:14:56.343Z,21.65
2019-04-05T07:16:57.657Z,21.67
2019-04-05T07:18:59.253Z,21.67
2019-04-05T07:21:00.877Z,21.67
2019-04-05T07:23:02.499Z,21.66
2019-04-05T07:25:04.116Z,21.63
2019-04-05T07:27:05.703Z,21.62
2019-04-05T07:29:07.292Z,20.94
2019-04-05T07:31:08.932Z,20.16
2019-04-05T07:33:10.553Z,19.93
2019-04-05T07:35:12.158Z,19.76
2019-04-05T07:37:13.738Z,19.64
2019-04-05T07:39:15.333Z,19.56
2019-04-05T07:41:16.974Z,19.52
2019-04-05T07:43:18.569Z,19.63
2019-04-05T07:45:20.148Z,19.63
2019-04-05T07:47:21.821Z,19.51
2019-04-05T07:49:23.433Z,19.47
2019-04-05T07:53:33.128Z,19.69
2019-04-05T07:55:34.863Z,19.77
2019-04-05T07:57:36.493Z,19.94
2019-04-05T07:59:38.123Z,20.06
2019-04-05T08:01:39.780Z,20.19
2019-04-05T08:03:41.397Z,20.29
2019-04-05T08:05:43.012Z,20.26
2019-04-05T08:07:44.665Z,20.30
2019-04-05T08:09:46.279Z,20.39
2019-04-05T08:11:47.900Z,20.41
2019-04-05T08:13:49.520Z,20.51
2019-04-05T08:15:51.148Z,20.52
2019-04-05T08:17:52.795Z,20.45
2019-04-05T08:19:54.393Z,20.64
2019-04-05T08:21:56.112Z,20.81
2019-04-05T08:23:57.728Z,20.89
2019-04-05T08:25:59.336Z,20.68
2019-04-05T08:28:01.031Z,20.75
2019-04-05T08:30:02.660Z,20.79
2019-04-05T08:32:13.856Z,20.71
2019-04-05T08:34:05.965Z,20.68
2019-04-05T08:36:07.564Z,20.98
2019-04-05T08:38:09.187Z,21.33
2019-04-05T08:40:10.791Z,21.50
2019-04-05T08:42:12.410Z,21.64
2019-04-05T08:44:14.017Z,21.70
2019-04-05T08:46:15.633Z,21.80
2019-04-05T08:48:17.260Z,21.74
2019-04-05T08:50:18.873Z,21.74
2019-04-05T08:52:20.473Z,21.69
2019-04-05T08:54:31.905Z,21.94
2019-04-05T08:56:23.719Z,21.95
2019-04-05T08:58:33.235Z,21.96
2019-04-05T09:00:26.999Z,21.97
2019-04-05T09:02:28.617Z,21.98
2019-04-05T09:04:30.229Z,22.01
2019-04-05T09:06:31.860Z,22.04
2019-04-05T09:08:33.463Z,22.05
2019-04-05T09:10:35.191Z,22.02
2019-04-05T09:12:36.796Z,22.03
2019-04-05T09:14:38.406Z,22.01
2019-04-05T09:16:40.005Z,21.99
2019-04-05T09:18:41.592Z,21.98
2019-04-05T09:20:43.220Z,21.97
2019-04-05T09:22:44.845Z,21.95
2019-04-05T09:24:46.489Z,21.95
2019-04-05T09:26:48.099Z,21.93
2019-04-05T09:28:49.692Z,21.94
2019-04-05T09:30:51.949Z,21.97
2019-04-05T09:32:53.010Z,22.00
2019-04-05T09:34:54.642Z,22.00
2019-04-05T09:36:56.254Z,21.99
2019-04-05T09:38:57.838Z,22.00
2019-04-05T09:40:59.471Z,22.00
2019-04-05T09:43:01.063Z,22.02
2019-04-05T09:45:02.713Z,22.04
2019-04-05T09:47:04.309Z,22.06
2019-04-05T09:49:05.957Z,22.07
2019-04-05T09:51:07.577Z,22.06
2019-04-05T09:53:09.182Z,22.05
2019-04-05T09:55:10.840Z,22.03
2019-04-05T09:57:12.447Z,22.00
2019-04-05T09:59:14.051Z,22.04
2019-04-05T10:01:15.668Z,22.06
2019-04-05T10:03:17.284Z,22.09
2019-04-05T10:05:18.884Z,22.09
2019-04-05T10:07:20.477Z,22.11
2019-04-05T10:09:22.097Z,21.97
2019-04-05T10:11:23.693Z,22.08
2019-04-05T10:13:25.299Z,22.07
2019-04-05T10:15:26.922Z,22.07
2019-04-05T10:17:28.571Z,22.06
2019-04-05T10:19:30.194Z,22.06
2019-04-05T10:21:31.836Z,22.07
2019-04-05T10:23:33.456Z,22.07
2019-04-05T10:25:35.082Z,22.00
2019-04-05T10:27:36.740Z,21.92
2019-04-05T10:29:38.352Z,21.99
2019-04-05T10:31:40.007Z,22.02
2019-04-05T10:33:41.625Z,21.93
2019-04-05T10:35:43.245Z,21.84
2019-04-05T10:37:44.874Z,21.77
2019-04-05T10:39:46.486Z,21.92
2019-04-05T10:41:48.094Z,22.02
2019-04-05T10:43:49.716Z,21.94
2019-04-05T10:45:51.311Z,21.85
2019-04-05T10:47:52.939Z,21.81
2019-04-05T10:50:02.812Z,21.74
2019-04-05T10:51:56.180Z,21.82
2019-04-05T10:53:57.763Z,21.85
2019-04-05T10:55:59.357Z,21.87
2019-04-05T10:58:01.024Z,21.94
2019-04-05T11:00:02.607Z,21.96
2019-04-05T11:02:04.186Z,21.96
2019-04-05T11:04:05.795Z,21.90
2019-04-05T11:06:07.389Z,21.78
2019-04-05T11:08:09.046Z,21.69
2019-04-05T11:10:10.665Z,21.64
2019-04-05T11:12:12.280Z,21.66
2019-04-05T11:14:14.336Z,21.76
2019-04-05T11:16:15.526Z,21.83
2019-04-05T11:18:17.172Z,21.86
2019-04-05T11:20:22.168Z,21.92
2019-04-05T11:22:21.185Z,21.97
2019-04-05T11:24:22.316Z,22.00
2019-04-05T11:26:23.959Z,22.01
2019-04-05T11:28:25.673Z,22.02
2019-04-05T11:30:27.269Z,22.01
2019-04-05T11:32:28.876Z,22.01
2019-04-05T11:34:30.494Z,22.02
2019-04-05T11:36:32.092Z,22.02
2019-04-05T11:38:33.725Z,22.03
2019-04-05T11:40:35.347Z,22.03
2019-04-05T11:42:36.961Z,22.03
2019-04-05T11:44:38.594Z,22.03
2019-04-05T11:46:40.226Z,22.04
2019-04-05T11:48:41.856Z,22.06
2019-04-05T11:50:43.510Z,22.09
2019-04-05T11:52:45.128Z,22.11
2019-04-05T11:54:46.750Z,22.12
2019-04-05T11:56:48.369Z,22.13
2019-04-05T11:58:50.084Z,22.13
2019-04-05T12:00:52.708Z,22.14
2019-04-05T12:02:56.087Z,22.14
2019-04-05T12:04:57.714Z,22.14
2019-04-05T12:06:59.351Z,22.13
2019-04-05T12:09:01.457Z,22.14
2019-04-05T12:11:02.664Z,22.15
2019-04-05T12:13:04.327Z,22.16
2019-04-05T12:15:06.458Z,22.16
2019-04-05T12:17:09.702Z,22.16
2019-04-05T12:19:09.236Z,22.17
2019-04-05T12:21:10.884Z,22.19
2019-04-05T12:23:12.562Z,22.20
2019-04-05T12:25:14.290Z,22.23
2019-04-05T12:27:15.930Z,22.25
2019-04-05T12:29:17.521Z,22.26
2019-04-05T12:31:19.402Z,22.25
2019-04-05T12:33:21.017Z,22.25
2019-04-05T12:35:22.632Z,22.25
2019-04-05T12:37:24.804Z,22.22
2019-04-05T12:39:26.422Z,22.25
2019-04-05T12:41:28.036Z,22.16
2019-04-05T12:43:29.787Z,22.24
2019-04-05T12:45:31.390Z,22.20
2019-04-05T12:47:34.110Z,22.23
2019-04-05T12:49:35.849Z,22.17
2019-04-05T12:51:37.478Z,22.22
2019-04-05T12:53:39.184Z,22.23
2019-04-05T12:55:40.814Z,22.24
2019-04-05T12:57:42.428Z,22.26
2019-04-05T12:59:44.062Z,22.26
2019-04-05T13:01:46.480Z,22.27
2019-04-05T13:03:47.347Z,22.27
2019-04-05T13:05:51.330Z,22.28
2019-04-05T13:07:52.506Z,22.28
2019-04-05T13:09:54.941Z,22.16
2019-04-05T13:11:56.451Z,22.11
2019-04-05T13:13:56.327Z,22.10
2019-04-05T13:15:59.375Z,21.86
2019-04-05T13:18:01.207Z,21.71
2019-04-05T13:20:01.256Z,21.90
2019-04-05T13:22:02.931Z,22.18
2019-04-05T13:24:04.612Z,22.98
2019-04-05T13:26:05.664Z,23.35
2019-04-05T13:28:13.241Z,23.15
2019-04-05T13:30:09.032Z,22.99
2019-04-05T13:32:10.607Z,23.21
2019-04-05T13:34:12.205Z,23.41
2019-04-05T13:36:13.819Z,21.89
2019-04-05T13:38:15.411Z,21.17
2019-04-05T13:40:17.500Z,21.09
2019-04-05T13:42:19.135Z,21.69
2019-04-05T13:44:20.773Z,22.08
2019-04-05T13:46:25.844Z,22.27
2019-04-05T13:48:24.113Z,22.37
2019-04-05T13:50:25.718Z,22.34
2019-04-05T13:52:27.329Z,22.37
2019-04-05T13:54:28.989Z,22.45
2019-04-05T13:56:30.599Z,22.49
2019-04-05T13:58:32.207Z,22.51
2019-04-05T14:00:33.836Z,22.52
2019-04-05T14:02:35.452Z,22.56
2019-04-05T14:04:37.093Z,22.53
2019-04-05T14:06:38.692Z,22.46
2019-04-05T14:08:41.895Z,22.48
2019-04-05T14:10:42.039Z,22.37
2019-04-05T14:12:47.272Z,22.53
2019-04-05T14:14:51.388Z,22.48
2019-04-05T14:16:50.589Z,22.44
2019-04-05T14:18:52.209Z,22.50
2019-04-05T14:20:53.868Z,22.47
2019-04-05T14:22:55.450Z,22.36
2019-04-05T14:24:57.102Z,22.35
2019-04-05T14:26:59.058Z,22.39
2019-04-05T14:29:03.471Z,22.33
2019-04-05T14:31:02.810Z,22.38
2019-04-05T14:33:04.173Z,22.35
2019-04-05T14:35:07.775Z,22.24
2019-04-05T14:37:07.524Z,22.26
2019-04-05T14:39:09.151Z,22.33
2019-04-05T14:41:11.189Z,22.27
2019-04-05T14:43:14.908Z,22.22
2019-04-05T14:45:14.495Z,22.16
2019-04-05T14:47:16.090Z,22.09
2019-04-05T14:49:17.682Z,22.12
2019-04-05T14:51:19.297Z,22.14
2019-04-05T14:53:20.893Z,22.25
2019-04-05T14:55:22.553Z,21.96
2019-04-05T14:57:24.158Z,22.21
2019-04-05T14:59:25.756Z,22.16
2019-04-05T15:01:27.348Z,22.14
2019-04-05T15:03:28.974Z,22.16
2019-04-05T15:05:30.588Z,22.15
2019-04-05T15:07:32.189Z,22.14
2019-04-05T15:09:33.806Z,22.13
2019-04-05T15:11:35.410Z,22.13
2019-04-05T15:13:37.024Z,22.14
2019-04-05T15:15:38.677Z,22.12
2019-04-05T15:17:47.965Z,22.11
2019-04-05T15:19:41.962Z,22.11
2019-04-05T15:21:44.915Z,22.10
2019-04-05T15:23:46.188Z,22.03
2019-04-05T15:25:49.428Z,22.50
2019-04-05T15:27:51.727Z,22.38
2019-04-05T15:29:50.224Z,22.27
2019-04-05T15:31:53.430Z,22.24
2019-04-05T15:33:53.526Z,22.19
2019-04-05T15:35:58.356Z,22.16
2019-04-05T15:37:56.815Z,22.14
2019-04-05T15:39:58.640Z,22.11
2019-04-05T15:42:00.040Z,22.11
2019-04-05T15:44:01.652Z,22.11
2019-04-05T15:46:03.282Z,22.09
2019-04-05T15:48:04.939Z,22.08
2019-04-05T15:50:06.544Z,22.38
2019-04-05T15:52:18.139Z,22.75
2019-04-05T15:54:09.774Z,22.93
2019-04-05T15:56:11.368Z,22.95
2019-04-05T15:58:13.004Z,22.95
2019-04-05T16:00:15.563Z,23.24
2019-04-05T16:02:17.152Z,23.36
2019-04-05T16:04:18.749Z,23.41
2019-04-05T16:06:20.347Z,23.27
2019-04-05T16:08:21.928Z,23.18
2019-04-05T16:10:23.541Z,23.18
2019-04-05T16:12:25.149Z,23.19
2019-04-05T16:14:26.808Z,23.22
2019-04-05T16:16:28.418Z,23.21
2019-04-05T16:18:30.026Z,23.04
2019-04-05T16:20:31.640Z,22.69
2019-04-05T16:22:35.756Z,22.41
2019-04-05T16:24:34.900Z,22.32
2019-04-05T16:26:36.523Z,22.26
2019-04-05T16:28:40.863Z,22.19
2019-04-05T16:30:39.986Z,22.17
2019-04-05T16:32:41.597Z,22.13
2019-04-05T16:34:43.230Z,22.10
2019-04-05T16:36:44.840Z,22.07
2019-04-05T16:38:46.441Z,22.04
2019-04-05T16:40:48.072Z,22.02
2019-04-05T16:43:01.749Z,22.00
2019-04-05T16:44:51.352Z,21.99
2019-04-05T16:46:53.166Z,21.97
2019-04-05T16:48:54.756Z,21.95
2019-04-05T16:50:56.426Z,21.92
2019-04-05T16:52:58.022Z,21.91
2019-04-05T16:54:59.641Z,21.91
2019-04-05T16:57:01.370Z,21.88
2019-04-05T16:59:02.997Z,21.87
2019-04-05T17:01:04.629Z,21.85
2019-04-05T17:03:06.238Z,21.78
2019-04-05T17:05:08.523Z,21.79
2019-04-05T17:07:10.206Z,21.80
2019-04-05T17:09:11.814Z,21.83
2019-04-05T17:11:13.440Z,21.84
2019-04-05T17:13:15.042Z,21.89
2019-04-05T17:15:16.693Z,21.61
2019-04-05T17:17:18.307Z,21.94
2019-04-05T17:19:20.594Z,21.96
2019-04-05T17:21:22.277Z,21.99
2019-04-05T17:23:23.881Z,22.00
2019-04-05T17:25:25.622Z,22.03
2019-04-05T17:27:27.215Z,22.09
2019-04-05T17:29:28.837Z,22.05
2019-04-05T17:31:30.482Z,22.06
2019-04-05T17:33:32.080Z,22.07
2019-04-05T17:35:33.700Z,22.07
2019-04-05T17:37:35.326Z,22.06
2019-04-05T17:39:36.934Z,22.05
2019-04-05T17:41:38.558Z,22.03
2019-04-05T17:43:40.176Z,22.04
2019-04-05T17:45:41.796Z,22.02
2019-04-05T17:47:43.408Z,22.01
2019-04-05T17:49:45.046Z,22.01
2019-04-05T17:51:46.677Z,22.00
2019-04-05T17:53:48.275Z,22.02
2019-04-05T17:55:49.871Z,22.01
2019-04-05T17:57:51.469Z,21.83
2019-04-05T17:59:53.065Z,21.98
2019-04-05T18:01:54.703Z,21.96
2019-04-05T18:03:56.309Z,21.94
2019-04-05T18:05:58.023Z,21.94
2019-04-05T18:07:59.678Z,22.00
2019-04-05T18:10:01.291Z,22.49
2019-04-05T18:12:02.931Z,22.65
2019-04-05T18:14:04.590Z,22.98
2019-04-05T18:16:06.179Z,23.19
2019-04-05T18:18:07.803Z,23.13
2019-04-05T18:20:10.020Z,23.14
2019-04-05T18:22:11.144Z,23.21
2019-04-05T18:24:12.760Z,23.46
2019-04-05T18:26:14.376Z,23.50
2019-04-05T18:28:16.038Z,23.56
2019-04-05T18:30:17.636Z,23.58
2019-04-05T18:32:19.211Z,23.59
2019-04-05T18:34:20.808Z,23.54
2019-04-05T18:36:22.404Z,23.46
2019-04-05T18:38:24.037Z,23.42
2019-04-05T18:40:25.703Z,23.08
2019-04-05T18:42:27.360Z,23.37
2019-04-05T18:44:28.954Z,23.37
2019-04-05T18:46:30.560Z,23.43
2019-04-05T18:48:32.316Z,23.47
2019-04-05T18:50:34.028Z,23.46
2019-04-05T18:52:35.647Z,23.61
2019-04-05T18:54:37.240Z,23.56
2019-04-05T18:56:38.854Z,23.76
2019-04-05T18:58:40.504Z,23.69
2019-04-05T19:00:42.176Z,23.50
2019-04-05T19:02:43.806Z,23.48
2019-04-05T19:04:45.428Z,23.51
2019-04-05T19:06:47.038Z,23.48
2019-04-05T19:08:48.712Z,23.30
2019-04-05T19:10:50.305Z,23.16
2019-04-05T19:12:51.986Z,23.06
2019-04-05T19:14:53.535Z,23.17
2019-04-05T19:16:55.153Z,23.33
2019-04-05T19:18:56.766Z,23.39
2019-04-05T19:20:58.427Z,23.43
2019-04-05T19:23:00.049Z,23.55
2019-04-05T19:25:04.742Z,23.53
2019-04-05T19:27:03.661Z,23.59
2019-04-05T19:29:05.368Z,23.58
2019-04-05T19:49:23.200Z,23.48
2019-04-05T19:51:24.844Z,23.91
2019-04-05T19:53:26.431Z,23.77
2019-04-05T19:55:28.113Z,23.68
2019-04-05T19:57:29.831Z,23.68
2019-04-05T19:59:31.450Z,23.58
2019-04-05T20:01:33.047Z,23.67
2019-04-05T20:03:34.668Z,23.71
2019-04-05T20:05:36.295Z,23.73
2019-04-05T20:07:37.955Z,23.72
2019-04-05T20:09:39.550Z,23.66
2019-04-05T20:11:41.164Z,23.71
2019-04-05T20:13:42.832Z,23.73
2019-04-05T20:15:44.428Z,23.70
2019-04-05T20:17:46.125Z,23.69
2019-04-05T20:19:47.738Z,23.68
2019-04-05T20:21:49.376Z,23.70
2019-04-05T20:23:51.000Z,23.72
2019-04-05T20:25:52.593Z,23.68
2019-04-05T20:27:54.182Z,23.64
2019-04-05T20:29:55.777Z,23.64
2019-04-05T20:31:57.363Z,23.67
2019-04-05T20:33:58.980Z,23.70
2019-04-05T20:36:00.625Z,23.76
2019-04-05T20:38:02.312Z,24.01
2019-04-05T20:40:03.990Z,24.01
2019-04-05T20:42:05.568Z,23.90
2019-04-05T20:44:07.190Z,23.81
2019-04-05T20:46:08.776Z,23.85
2019-04-05T20:48:10.369Z,23.67
2019-04-05T20:50:11.989Z,23.81
2019-04-05T20:52:13.595Z,23.73
2019-04-05T20:54:24.197Z,23.25
2019-04-05T20:56:16.920Z,22.92
2019-04-05T20:58:18.580Z,22.75
2019-04-05T21:00:20.195Z,22.98
2019-04-05T21:02:21.799Z,22.89
2019-04-05T21:04:23.383Z,22.99
2019-04-05T21:06:25.028Z,22.84
2019-04-05T21:08:26.640Z,22.76
2019-04-05T21:10:28.299Z,22.70
2019-04-05T21:12:29.893Z,22.66
2019-04-05T21:14:31.508Z,22.62
2019-04-05T21:16:33.141Z,22.57
2019-04-05T21:18:34.838Z,22.27
2019-04-05T21:20:36.496Z,22.49
2019-04-05T21:22:38.123Z,22.46
2019-04-05T21:24:39.719Z,22.44
2019-04-05T21:26:41.400Z,22.43
2019-04-05T21:28:43.023Z,22.38
2019-04-05T21:30:44.680Z,22.35
2019-04-05T21:32:46.280Z,22.31
2019-04-05T21:34:47.879Z,22.18
2019-04-05T21:36:49.508Z,22.27
2019-04-05T21:38:51.100Z,22.23
2019-04-05T21:40:52.698Z,22.20
2019-04-05T21:42:54.993Z,22.17
2019-04-05T21:44:56.599Z,22.14
2019-04-05T21:46:58.193Z,22.12
2019-04-05T21:48:59.800Z,22.10
2019-04-05T21:51:01.432Z,22.08
2019-04-05T21:53:03.093Z,22.06
2019-04-05T21:55:04.803Z,22.05
2019-04-05T21:57:06.450Z,22.05
2019-04-05T21:59:08.072Z,22.03
2019-04-05T22:01:09.723Z,22.01
2019-04-05T22:03:11.337Z,21.97
2019-04-05T22:05:12.934Z,21.96
2019-04-05T22:07:14.532Z,21.94
2019-04-05T22:09:16.145Z,21.92
2019-04-05T22:11:17.771Z,22.00
2019-04-05T22:13:19.385Z,21.97
2019-04-05T22:15:20.980Z,21.91
2019-04-05T22:17:22.598Z,21.87
2019-04-05T22:19:24.186Z,21.83
2019-04-05T22:21:25.836Z,21.80
2019-04-05T22:23:27.452Z,21.77
2019-04-05T22:25:29.068Z,21.47
2019-04-05T22:27:30.716Z,21.74
2019-04-05T22:29:32.318Z,21.73
2019-04-05T22:31:33.937Z,21.72
2019-04-05T22:33:35.569Z,21.70
2019-04-05T22:35:37.184Z,21.69
2019-04-05T22:37:38.780Z,21.68
2019-04-05T22:39:40.372Z,21.66
2019-04-05T22:41:41.950Z,21.65
2019-04-05T22:43:43.526Z,21.62
2019-04-05T22:45:45.180Z,21.62
2019-04-05T22:47:46.776Z,21.64
2019-04-05T22:49:48.387Z,21.65
2019-04-05T22:51:50.014Z,21.65
2019-04-05T22:53:51.634Z,21.66
2019-04-05T22:55:53.214Z,21.71
2019-04-05T22:57:54.828Z,21.72
2019-04-05T22:59:56.439Z,21.68
2019-04-05T23:01:58.032Z,21.74
2019-04-05T23:03:59.680Z,21.69
2019-04-05T23:06:01.300Z,21.71
2019-04-05T23:08:02.952Z,21.68
2019-04-05T23:10:04.584Z,21.67
2019-04-05T23:12:06.204Z,21.66
2019-04-05T23:14:07.822Z,21.67
2019-04-05T23:16:09.450Z,21.66
2019-04-05T23:18:11.041Z,21.66
2019-04-05T23:20:12.660Z,21.64
2019-04-05T23:22:14.272Z,21.62
2019-04-05T23:24:15.883Z,21.61
2019-04-05T23:26:17.532Z,21.61
2019-04-05T23:28:19.132Z,21.61
2019-04-05T23:30:20.771Z,21.61
2019-04-05T23:32:22.394Z,21.64
2019-04-05T23:34:24.007Z,21.66
2019-04-05T23:36:25.659Z,21.65
2019-04-05T23:38:27.243Z,21.64
2019-04-05T23:40:28.833Z,21.63
2019-04-05T23:42:30.445Z,21.60
2019-04-05T23:44:32.060Z,21.58
2019-04-05T23:46:33.681Z,21.55
2019-04-05T23:48:35.276Z,21.55
2019-04-05T23:50:36.888Z,21.53
2019-04-05T23:52:38.507Z,21.51
2019-04-05T23:54:40.102Z,21.51
2019-04-05T23:56:41.743Z,21.49
2019-04-05T23:58:43.360Z,21.49
